Time;durP1;ratioP1;P1;durP2;ratioP2;P2;SDS_P1;SDS_P2;PMS_P1;PMS_P2;Temp;Humidity;BMP_temperature;BMP_pressure;BME280_temperature;BME280_humidity;BME280_pressure;Samples;Min_cycle;Max_cycle;Signal;HPM_P1;HPM_P2
2023/12/09 00:01:16;;;;;;;6.00;3.50;;;;;;;2.12;80.31;99727.65;78159;1300;3026136;-62
2023/12/09 00:03:43;;;;;;;9.10;3.60;;;;;;;1.96;80.82;99726.44;79592;1299;3018419;-62
2023/12/09 00:06:10;;;;;;;6.00;3.80;;;;;;;1.72;81.12;99732.62;79358;1297;3011975;-64
2023/12/09 00:08:38;;;;;;;6.00;3.50;;;;;;;1.58;81.95;99729.98;78113;1297;3025967;-63
2023/12/09 00:11:06;;;;;;;6.20;3.80;;;;;;;1.52;82.60;99726.98;79269;1299;3013957;-63
2023/12/09 00:13:33;;;;;;;5.10;3.40;;;;;;;1.57;83.01;99724.98;79097;1298;3013672;-63
2023/12/09 00:16:01;;;;;;;5.90;3.30;;;;;;;1.56;82.89;99724.47;78129;1295;3052730;-63
2023/12/09 00:18:28;;;;;;;5.20;3.50;;;;;;;1.53;82.56;99721.95;79407;1300;3018734;-63
2023/12/09 00:20:55;;;;;;;7.60;3.20;;;;;;;1.38;83.00;99720.52;79301;1296;3012985;-63
2023/12/09 00:23:23;;;;;;;8.30;2.70;;;;;;;1.26;83.57;99719.35;78152;1299;3026419;-63
2023/12/09 00:25:50;;;;;;;4.10;2.50;;;;;;;1.70;82.68;99716.59;79308;1297;3018947;-64
2023/12/09 00:28:16;;;;;;;4.10;2.30;;;;;;;2.19;80.82;99710.21;79319;1295;3013123;-63
2023/12/09 00:30:45;;;;;;;4.00;2.40;;;;;;;2.45;79.83;99711.52;77988;1300;3028906;-63
2023/12/09 00:33:11;;;;;;;2.80;2.30;;;;;;;2.43;79.64;99711.56;79422;1297;3018982;-63
2023/12/09 00:35:38;;;;;;;4.30;2.90;;;;;;;2.35;79.80;99706.74;79203;1298;3011967;-63
2023/12/09 00:38:06;;;;;;;3.70;2.50;;;;;;;2.09;80.09;99702.84;78098;1296;3028545;-62
2023/12/09 00:40:33;;;;;;;4.90;2.80;;;;;;;1.90;80.36;99700.83;79169;1297;3020432;-64
2023/12/09 00:43:00;;;;;;;4.40;2.50;;;;;;;1.73;81.35;99705.49;79221;1295;3011649;-63
2023/12/09 00:45:28;;;;;;;7.00;3.20;;;;;;;1.75;81.54;99707.53;78085;1300;3025960;-64
2023/12/09 00:47:55;;;;;;;3.90;2.70;;;;;;;1.65;81.47;99713.25;79355;1298;3015079;-64
2023/12/09 00:50:22;;;;;;;3.10;2.80;;;;;;;1.59;81.83;99713.54;79089;1297;3012325;-64
2023/12/09 00:52:50;;;;;;;4.50;3.10;;;;;;;1.46;82.43;99713.97;78166;1296;3056401;-63
2023/12/09 00:55:17;;;;;;;4.70;3.30;;;;;;;1.42;82.82;99716.81;79300;1297;3013778;-65
2023/12/09 00:57:44;;;;;;;4.80;2.80;;;;;;;1.37;82.78;99713.96;79269;1296;3012287;-64
2023/12/09 01:00:15;;;;;;;3.40;2.40;;;;;;;1.62;82.85;99705.52;78135;1297;3028749;-62
2023/12/09 01:02:41;;;;;;;3.20;2.20;;;;;;;2.06;81.12;99703.60;79312;1297;3011620;-64
2023/12/09 01:05:11;;;;;;;3.60;2.40;;;;;;;2.07;80.57;99699.40;78802;1296;3011859;-63
2023/12/09 01:07:37;;;;;;;4.50;2.40;;;;;;;1.92;80.69;99701.65;79456;1299;3013143;-63
2023/12/09 01:10:05;;;;;;;4.10;2.70;;;;;;;1.90;80.98;99702.56;79229;1300;3011447;-63
2023/12/09 01:12:34;;;;;;;4.40;2.80;;;;;;;1.71;81.34;99711.41;78091;1299;3054122;-62
2023/12/09 01:15:00;;;;;;;4.90;3.10;;;;;;;1.52;82.15;99709.89;79287;1296;3013556;-61
2023/12/09 01:17:27;;;;;;;6.60;3.10;;;;;;;1.51;82.82;99704.20;79352;1300;3013189;-63
2023/12/09 01:19:55;;;;;;;5.30;2.80;;;;;;;1.51;83.31;99703.68;78143;1296;3026699;-63
2023/12/09 01:22:22;;;;;;;5.30;3.20;;;;;;;1.36;83.14;99708.64;79415;1296;3020757;-62
2023/12/09 01:24:50;;;;;;;8.70;3.60;;;;;;;1.27;83.71;99711.05;79264;1300;3011829;-62
2023/12/09 01:27:18;;;;;;;5.40;3.50;;;;;;;1.16;83.89;99714.34;78139;1297;3026582;-63
2023/12/09 01:29:44;;;;;;;5.40;3.20;;;;;;;1.14;84.36;99719.56;79195;1296;3013518;-61
2023/12/09 01:32:11;;;;;;;5.10;3.00;;;;;;;1.03;84.33;99720.79;79260;1298;3011694;-63
2023/12/09 01:34:40;;;;;;;4.30;2.10;;;;;;;1.39;84.05;99719.44;78345;1297;3026520;-62
2023/12/09 01:37:07;;;;;;;4.00;2.60;;;;;;;1.95;81.90;99719.54;79365;1295;3013637;-64
2023/12/09 01:39:36;;;;;;;7.20;3.50;;;;;;;2.17;81.32;99718.56;79327;1296;3011640;-62
2023/12/09 01:42:04;;;;;;;4.50;3.20;;;;;;;2.11;81.13;99718.86;78079;1297;3053310;-64
2023/12/09 01:44:31;;;;;;;6.80;3.50;;;;;;;1.91;81.30;99713.41;79289;1298;3012816;-64
2023/12/09 01:46:58;;;;;;;6.70;3.40;;;;;;;1.69;81.84;99711.96;79319;1300;3011644;-64
2023/12/09 01:49:26;;;;;;;6.00;3.20;;;;;;;1.56;82.48;99713.59;78188;1302;3026667;-64
2023/12/09 01:51:53;;;;;;;5.40;3.60;;;;;;;1.35;83.30;99712.80;79343;1295;3013470;-63
2023/12/09 01:54:20;;;;;;;6.50;3.40;;;;;;;1.26;84.23;99717.45;79361;1296;3011716;-63
2023/12/09 01:56:48;;;;;;;7.70;4.00;;;;;;;1.16;84.83;99715.21;78232;1297;3053090;-62
2023/12/09 01:59:15;;;;;;;4.90;3.50;;;;;;;1.07;85.31;99714.18;79464;1300;3018985;-63
2023/12/09 02:01:42;;;;;;;6.00;3.90;;;;;;;1.06;85.47;99711.08;79276;1297;3013486;-65
2023/12/09 02:04:10;;;;;;;8.10;3.30;;;;;;;0.88;85.95;99712.09;77989;1303;3028304;-64
2023/12/09 02:06:37;;;;;;;3.90;2.20;;;;;;;1.34;85.06;99708.16;79290;1296;3018669;-64
2023/12/09 02:09:04;;;;;;;5.90;2.60;;;;;;;1.88;83.30;99709.16;79217;1303;3011694;-64
2023/12/09 02:11:41;;;;;;;4.80;3.20;;;;;;;1.95;82.38;99710.73;78000;1297;3026811;-64
2023/12/09 02:14:39;;;;;;;4.60;3.00;;;;;;;1.82;82.50;99713.59;78182;1296;3049901;-63
2023/12/09 02:17:18;;;;;;;5.40;3.50;;;;;;;1.67;83.16;99712.34;78031;1300;3051698;-64
2023/12/09 02:19:46;;;;;;;7.20;3.30;;;;;;;1.43;83.95;99713.33;78122;1298;3052484;-64
2023/12/09 02:22:13;;;;;;;6.10;3.50;;;;;;;1.42;84.21;99711.11;79230;1299;3013094;-63
2023/12/09 02:24:40;;;;;;;6.20;3.60;;;;;;;1.35;84.48;99714.01;79184;1297;3011489;-64
2023/12/09 02:27:12;;;;;;;5.50;4.00;;;;;;;1.28;84.85;99710.49;78160;1300;3026795;-62
2023/12/09 02:29:58;;;;;;;8.40;4.30;;;;;;;1.15;85.48;99710.08;79400;1295;3011777;-63
2023/12/09 02:32:29;;;;;;;7.10;3.90;;;;;;;1.03;86.25;99714.24;78089;1297;3050949;-64
2023/12/09 02:34:56;;;;;;;6.00;4.00;;;;;;;1.03;86.75;99711.99;79406;1300;3011945;-63
2023/12/09 02:37:25;;;;;;;7.00;3.40;;;;;;;1.69;85.70;99709.17;78860;1298;3013234;-62
2023/12/09 02:39:52;;;;;;;3.80;2.80;;;;;;;2.41;82.93;99706.27;79258;1303;3013696;-64
2023/12/09 02:42:19;;;;;;;7.70;3.80;;;;;;;2.39;81.44;99706.14;79200;1300;3011829;-63
2023/12/09 02:44:47;;;;;;;6.10;3.90;;;;;;;2.31;81.49;99703.73;77964;1303;3049194;-63
2023/12/09 02:47:14;;;;;;;8.80;3.70;;;;;;;2.29;81.65;99699.26;76561;1300;3822310;-63
2023/12/09 02:49:41;;;;;;;9.20;3.80;;;;;;;2.09;81.36;99700.77;79261;1297;3013256;-64
2023/12/09 02:52:11;;;;;;;9.00;4.60;;;;;;;1.88;81.73;99701.04;78188;1300;3052018;-65
2023/12/09 02:54:38;;;;;;;4.30;3.30;;;;;;;1.80;82.06;99705.69;79298;1298;3012937;-62
2023/12/09 02:57:05;;;;;;;6.50;4.00;;;;;;;1.71;82.37;99707.60;79343;1297;3013698;-63
2023/12/09 02:59:34;;;;;;;6.50;4.50;;;;;;;1.48;82.77;99708.23;78235;1297;3050099;-64
2023/12/09 03:02:00;;;;;;;6.00;4.50;;;;;;;1.33;83.73;99710.41;79264;1297;3013783;-62
2023/12/09 03:04:27;;;;;;;7.40;4.80;;;;;;;1.38;84.12;99708.42;79257;1297;3011590;-62
2023/12/09 03:06:56;;;;;;;7.20;3.60;;;;;;;1.36;84.50;99705.70;78039;1300;3050944;-63
2023/12/09 03:09:23;;;;;;;6.30;3.10;;;;;;;1.78;83.48;99702.61;79467;1300;3013160;-63
2023/12/09 03:11:49;;;;;;;5.70;3.10;;;;;;;2.49;81.25;99703.30;79249;1300;3011762;-64
2023/12/09 03:14:17;;;;;;;6.00;3.80;;;;;;;2.55;79.78;99703.69;78048;1300;3028009;-62
2023/12/09 03:16:44;;;;;;;9.50;3.50;;;;;;;2.40;80.06;99705.06;79324;1297;3021363;-64
2023/12/09 03:19:11;;;;;;;7.70;4.00;;;;;;;2.29;80.10;99709.80;79285;1297;3011857;-65
2023/12/09 03:21:39;;;;;;;4.60;3.20;;;;;;;2.03;80.42;99703.48;78249;1300;3028507;-63
2023/12/09 03:24:06;;;;;;;6.60;3.60;;;;;;;1.87;80.98;99705.88;79347;1297;3018869;-62
2023/12/09 03:26:33;;;;;;;6.30;4.20;;;;;;;1.62;81.36;99704.67;79295;1300;3013054;-65
2023/12/09 03:29:01;;;;;;;5.10;4.10;;;;;;;1.37;82.79;99698.43;78119;1299;3027979;-62
2023/12/09 03:31:27;;;;;;;8.80;4.10;;;;;;;1.36;83.53;99698.63;79421;1300;3013670;-62
2023/12/09 03:33:54;;;;;;;5.70;4.20;;;;;;;1.20;83.85;99699.78;79199;1300;3013329;-65
2023/12/09 03:36:22;;;;;;;7.80;4.30;;;;;;;1.14;84.51;99690.56;77999;1300;3027328;-62
2023/12/09 03:38:49;;;;;;;6.80;3.70;;;;;;;1.00;85.09;99693.42;79355;1297;3018629;-65
2023/12/09 03:41:16;;;;;;;5.90;3.20;;;;;;;1.54;84.38;99678.42;79297;1300;3012314;-63
2023/12/09 03:43:44;;;;;;;5.70;3.20;;;;;;;1.90;81.97;99667.48;78292;1299;3028989;-61
2023/12/09 03:46:13;;;;;;;6.20;3.20;;;;;;;2.22;81.39;99665.73;79491;1297;3013563;-62
2023/12/09 03:48:42;;;;;;;6.00;3.20;;;;;;;2.23;80.84;99667.61;78964;1300;3011797;-61
2023/12/09 03:51:09;;;;;;;5.40;2.90;;;;;;;2.03;80.66;99668.23;79280;1300;3011794;-63
2023/12/09 03:53:36;;;;;;;5.10;3.20;;;;;;;1.89;81.11;99671.64;79186;1299;3011291;-62
2023/12/09 03:56:05;;;;;;;8.80;4.00;;;;;;;1.71;81.60;99672.73;77922;1299;3028477;-63
2023/12/09 03:58:32;;;;;;;5.50;2.90;;;;;;;1.42;82.51;99677.60;79349;1297;3014451;-62
2023/12/09 04:00:58;;;;;;;5.10;3.40;;;;;;;1.27;83.26;99677.74;79280;1297;3011672;-63
2023/12/09 04:03:27;;;;;;;4.70;3.60;;;;;;;1.26;83.79;99680.52;78308;1300;3050338;-62
2023/12/09 04:05:54;;;;;;;7.60;3.70;;;;;;;1.05;84.38;99679.35;79372;1300;3013890;-61
2023/12/09 04:08:21;;;;;;;6.40;3.70;;;;;;;0.93;85.24;99679.91;79330;1298;3013218;-62
2023/12/09 04:10:49;;;;;;;5.50;3.00;;;;;;;0.97;86.05;99679.65;78108;1297;3050888;-62
2023/12/09 04:13:16;;;;;;;5.80;3.00;;;;;;;1.43;84.63;99682.42;79259;1297;3013761;-63
2023/12/09 04:15:42;;;;;;;8.30;2.90;;;;;;;1.97;82.32;99679.59;79346;1299;3012578;-64
2023/12/09 04:18:11;;;;;;;5.90;3.00;;;;;;;2.10;81.45;99686.04;78159;1300;3028791;-63
2023/12/09 04:20:37;;;;;;;5.00;2.80;;;;;;;2.10;81.01;99690.71;79386;1300;3020841;-64
2023/12/09 04:23:04;;;;;;;4.70;3.00;;;;;;;1.92;81.31;99698.37;79274;1316;3011489;-63
2023/12/09 04:25:33;;;;;;;5.20;3.40;;;;;;;1.65;81.83;99705.48;78062;1297;3028605;-65
2023/12/09 04:28:00;;;;;;;4.90;3.20;;;;;;;1.53;82.31;99704.69;79338;1297;3013816;-62
2023/12/09 04:30:26;;;;;;;5.70;3.30;;;;;;;1.48;82.83;99706.33;79314;1299;3012858;-62
2023/12/09 04:32:54;;;;;;;4.30;3.00;;;;;;;1.35;83.07;99705.89;78139;1300;3028458;-63
2023/12/09 04:35:21;;;;;;;5.10;3.30;;;;;;;1.31;83.80;99704.07;79384;1299;3012930;-63
2023/12/09 04:37:48;;;;;;;8.20;3.60;;;;;;;1.39;84.19;99711.70;79366;1300;3011585;-63
2023/12/09 04:40:17;;;;;;;5.70;3.40;;;;;;;1.37;83.75;99718.63;78019;1300;3026521;-64
2023/12/09 04:42:44;;;;;;;5.10;3.00;;;;;;;1.42;83.87;99718.36;79400;1297;3013905;-63
2023/12/09 04:45:10;;;;;;;4.40;2.90;;;;;;;1.99;82.50;99718.94;79278;1295;3011843;-62
2023/12/09 04:47:39;;;;;;;5.10;2.80;;;;;;;2.58;79.86;99720.22;78191;1300;3048700;-62
2023/12/09 04:50:10;;;;;;;4.10;2.50;;;;;;;2.80;78.85;99716.92;79328;1300;3012660;-62
2023/12/09 04:52:38;;;;;;;5.20;2.90;;;;;;;2.82;78.82;99713.06;78173;1300;3068433;-63
2023/12/09 04:55:08;;;;;;;5.00;2.90;;;;;;;2.64;78.62;99712.80;79313;1297;3013385;-62
2023/12/09 04:57:34;;;;;;;6.30;3.10;;;;;;;2.30;78.67;99711.88;79380;1297;3011984;-61
2023/12/09 05:00:05;;;;;;;6.30;2.90;;;;;;;2.11;79.40;99712.79;78310;1300;3053343;-64
2023/12/09 05:02:32;;;;;;;6.50;4.30;;;;;;;1.96;79.89;99717.09;79207;1296;3011927;-63
2023/12/09 05:05:01;;;;;;;6.90;3.90;;;;;;;1.85;80.45;99717.15;78740;1300;3011717;-62
2023/12/09 05:07:28;;;;;;;6.10;4.00;;;;;;;1.74;80.76;99723.42;79365;1300;3013198;-61
2023/12/09 05:09:55;;;;;;;4.50;3.40;;;;;;;1.64;81.29;99732.95;79510;1300;3013023;-62
2023/12/09 05:12:23;;;;;;;6.70;3.50;;;;;;;1.63;81.49;99742.81;78043;1299;3056850;-62
2023/12/09 05:14:50;;;;;;;5.90;4.10;;;;;;;1.56;81.85;99743.81;79262;1296;3021270;-63
2023/12/09 05:17:17;;;;;;;6.70;4.00;;;;;;;1.57;82.19;99753.82;79212;1298;3011750;-61
2023/12/09 05:19:45;;;;;;;7.60;4.10;;;;;;;1.51;82.53;99759.44;78144;1297;3025988;-63
2023/12/09 05:22:12;;;;;;;6.00;3.30;;;;;;;1.91;82.11;99760.40;79356;1300;3013579;-63
2023/12/09 05:24:39;;;;;;;6.10;3.90;;;;;;;2.46;80.03;99759.92;79553;1300;3013235;-64
2023/12/09 05:27:07;;;;;;;7.00;4.00;;;;;;;2.47;79.19;99760.76;78245;1300;3028214;-63
2023/12/09 05:29:34;;;;;;;4.80;3.40;;;;;;;2.54;79.49;99759.05;79475;1296;3013829;-62
2023/12/09 05:32:01;;;;;;;4.20;3.00;;;;;;;2.42;79.50;99756.73;79109;1297;3012900;-64
2023/12/09 05:34:29;;;;;;;4.00;3.20;;;;;;;2.16;80.12;99757.98;78153;1300;3052778;-63
2023/12/09 05:36:56;;;;;;;3.90;3.10;;;;;;;2.02;80.93;99760.34;79465;1300;3018995;-65
2023/12/09 05:39:23;;;;;;;5.50;3.80;;;;;;;1.76;81.92;99765.71;79250;1300;3011873;-64
2023/12/09 05:41:51;;;;;;;5.40;3.70;;;;;;;1.68;82.94;99764.48;78312;1300;3027322;-61
2023/12/09 05:44:18;;;;;;;5.70;3.40;;;;;;;1.68;83.34;99763.96;79355;1297;3014185;-63
2023/12/09 05:46:45;;;;;;;5.60;3.70;;;;;;;1.53;83.67;99764.41;79589;1297;3013894;-63
2023/12/09 05:49:13;;;;;;;6.80;4.20;;;;;;;1.46;84.49;99766.45;78236;1299;3052768;-64
2023/12/09 05:51:42;;;;;;;6.60;3.80;;;;;;;1.53;84.52;99764.26;79289;1299;3012692;-61
2023/12/09 05:54:09;;;;;;;5.40;3.40;;;;;;;1.52;84.61;99773.77;79253;1296;3011763;-62
2023/12/09 05:56:40;;;;;;;5.00;3.00;;;;;;;2.11;83.38;99770.86;78042;1299;3056681;-63
2023/12/09 05:59:07;;;;;;;4.70;2.70;;;;;;;2.65;80.85;99772.61;79408;1297;3012068;-64
2023/12/09 06:01:36;;;;;;;5.60;3.20;;;;;;;3.00;80.34;99773.52;78795;1296;3011939;-64
2023/12/09 06:04:04;;;;;;;5.20;3.10;;;;;;;2.95;79.25;99769.51;79368;1300;3013448;-61
2023/12/09 06:06:31;;;;;;;3.80;2.70;;;;;;;2.82;79.16;99771.36;79311;1300;3013650;-63
2023/12/09 06:08:59;;;;;;;5.80;2.80;;;;;;;2.68;79.39;99769.77;78032;1300;3068823;-62
2023/12/09 06:11:26;;;;;;;5.80;3.50;;;;;;;2.55;79.48;99770.61;79264;1300;3019229;-62
2023/12/09 06:13:52;;;;;;;6.70;3.50;;;;;;;2.47;79.68;99770.09;79078;1300;3011650;-63
2023/12/09 06:16:21;;;;;;;6.70;4.10;;;;;;;2.24;80.15;99768.02;78072;1297;3026656;-64
2023/12/09 06:18:47;;;;;;;7.20;4.30;;;;;;;2.18;80.48;99764.50;79374;1297;3013735;-63
2023/12/09 06:21:21;;;;;;;7.50;5.00;;;;;;;2.06;80.91;99763.70;79254;1302;3011584;-64
2023/12/09 06:23:49;;;;;;;6.80;5.10;;;;;;;1.94;81.52;99770.20;78031;1296;3070394;-63
2023/12/09 06:26:17;;;;;;;7.70;5.00;;;;;;;2.00;81.86;99768.50;79283;1297;3013059;-61
2023/12/09 06:28:43;;;;;;;8.70;4.90;;;;;;;1.92;81.70;99764.19;79327;1302;3012893;-64
2023/12/09 06:31:11;;;;;;;9.90;5.70;;;;;;;1.98;81.83;99763.20;78147;1302;3028902;-63
2023/12/09 06:33:38;;;;;;;7.50;4.90;;;;;;;1.88;81.73;99763.74;79230;1303;3013776;-63
2023/12/09 06:36:06;;;;;;;6.10;4.10;;;;;;;1.89;81.99;99762.85;79277;1302;3011512;-62
2023/12/09 06:38:39;;;;;;;7.10;3.70;;;;;;;2.40;81.09;99758.49;78081;1303;3068879;-64
2023/12/09 06:41:09;;;;;;;;;;;;;;;3.19;79.26;99754.00;79411;1299;3013207;-64
2023/12/09 06:43:37;;;;;;;7.10;4.30;;;;;;;3.35;77.49;99754.29;78030;1296;3054920;-63
2023/12/09 06:46:03;;;;;;;7.10;3.90;;;;;;;3.16;77.02;99757.02;79251;1298;3011772;-62
2023/12/09 06:48:30;;;;;;;8.50;4.40;;;;;;;3.12;77.70;99756.79;79568;1297;3011391;-63
2023/12/09 06:50:58;;;;;;;5.70;4.10;;;;;;;3.01;77.38;99754.64;78100;1300;3027041;-62
2023/12/09 06:53:25;;;;;;;5.40;3.40;;;;;;;2.90;77.88;99753.54;79427;1300;3013217;-62
2023/12/09 06:55:52;;;;;;;6.90;4.50;;;;;;;2.85;78.04;99752.59;79411;1299;3011867;-63
2023/12/09 06:58:21;;;;;;;6.90;4.20;;;;;;;2.74;78.03;99755.29;78040;1300;3028059;-64
2023/12/09 07:00:47;;;;;;;6.10;4.60;;;;;;;2.55;78.30;99761.61;79361;1297;3020906;-63
2023/12/09 07:03:14;;;;;;;6.60;4.10;;;;;;;2.46;78.85;99762.32;79281;1300;3011804;-63
2023/12/09 07:05:43;;;;;;;7.40;4.20;;;;;;;2.41;79.10;99762.10;78082;1300;3027480;-65
2023/12/09 07:08:14;;;;;;;6.20;4.30;;;;;;;2.39;79.40;99762.84;79685;1300;3013419;-64
2023/12/09 07:10:46;;;;;;;6.90;4.50;;;;;;;2.36;79.49;99772.23;78267;1297;3051517;-63
2023/12/09 07:13:13;;;;;;;8.40;4.90;;;;;;;2.40;79.30;99777.86;79405;1296;3012794;-61
2023/12/09 07:15:41;;;;;;;5.60;4.20;;;;;;;2.29;79.02;99779.30;78175;1300;3028270;-63
2023/12/09 07:18:08;;;;;;;7.80;4.70;;;;;;;2.22;79.62;99781.35;79434;1300;3013132;-64
2023/12/09 07:20:34;;;;;;;7.50;4.80;;;;;;;2.13;79.80;99783.09;79316;1303;3011757;-66
2023/12/09 07:23:02;;;;;;;6.70;5.00;;;;;;;2.07;80.19;99783.04;78350;1303;3026934;-63
2023/12/09 07:25:30;;;;;;;8.30;5.00;;;;;;;1.95;80.56;99780.17;79550;1297;3013368;-63
2023/12/09 07:27:57;;;;;;;9.50;4.70;;;;;;;1.86;81.29;99776.92;79452;1300;3011823;-64
2023/12/09 07:30:25;;;;;;;6.60;4.10;;;;;;;2.28;81.11;99775.17;78286;1299;3048734;-63
2023/12/09 07:32:52;;;;;;;5.90;3.60;;;;;;;2.90;78.73;99769.61;79535;1300;3013186;-61
2023/12/09 07:35:19;;;;;;;6.50;3.90;;;;;;;2.90;77.81;99760.42;79359;1310;3011394;-62
2023/12/09 07:37:47;;;;;;;8.60;3.80;;;;;;;2.83;78.15;99760.27;78110;1302;3054285;-64
2023/12/09 07:40:15;;;;;;;6.20;4.10;;;;;;;2.68;78.45;99760.79;79381;1300;3013573;-64
2023/12/09 07:42:42;;;;;;;6.70;4.20;;;;;;;2.49;79.21;99760.88;79460;1300;3011654;-65
2023/12/09 07:45:11;;;;;;;5.10;3.70;;;;;;;2.47;79.52;99757.81;77954;1300;3050059;-65
2023/12/09 07:47:37;;;;;;;6.20;4.30;;;;;;;2.33;79.86;99757.27;79449;1300;3013595;-65
2023/12/09 07:50:05;;;;;;;7.40;4.90;;;;;;;2.28;80.24;99756.34;79596;1300;3011594;-64
2023/12/09 07:52:33;;;;;;;8.70;5.50;;;;;;;2.23;80.68;99749.86;78362;1300;3051808;-65
2023/12/09 07:55:00;;;;;;;7.40;4.70;;;;;;;2.28;80.71;99750.13;79484;1300;3012973;-67
2023/12/09 07:57:26;;;;;;;7.50;4.60;;;;;;;2.24;81.04;99743.80;79624;1298;3011662;-64
2023/12/09 07:59:54;;;;;;;7.10;4.60;;;;;;;2.34;80.89;99736.33;78117;1298;3025909;-64
2023/12/09 08:02:21;;;;;;;6.80;4.20;;;;;;;2.35;80.40;99729.73;79572;1295;3013118;-64
2023/12/09 08:04:48;;;;;;;6.60;5.20;;;;;;;2.27;80.58;99728.88;79528;1300;3013662;-64
2023/12/09 08:07:16;;;;;;;8.00;4.80;;;;;;;2.16;80.67;99725.48;78245;1296;3025861;-66
2023/12/09 08:09:43;;;;;;;6.90;4.80;;;;;;;2.10;81.08;99721.81;79380;1296;3013078;-63
2023/12/09 08:12:10;;;;;;;7.40;4.20;;;;;;;2.07;81.90;99721.54;79234;1297;3011492;-63
2023/12/09 08:14:38;;;;;;;8.30;4.70;;;;;;;2.68;80.54;99715.11;78081;1300;3049034;-64
2023/12/09 08:17:05;;;;;;;11.00;4.50;;;;;;;3.19;78.25;99709.17;79533;1300;3018543;-64
2023/12/09 08:19:33;;;;;;;8.40;4.70;;;;;;;3.37;77.31;99705.59;79404;1300;3011560;-63
2023/12/09 08:22:02;;;;;;;7.40;4.70;;;;;;;3.25;77.40;99696.91;78346;1300;3052662;-64
2023/12/09 08:24:29;;;;;;;7.50;5.20;;;;;;;3.15;77.86;99693.16;79294;1297;3013566;-62
2023/12/09 08:26:56;;;;;;;8.10;5.40;;;;;;;3.02;77.79;99683.13;79405;1297;3012185;-62
2023/12/09 08:29:25;;;;;;;6.90;4.60;;;;;;;2.76;78.25;99683.63;78303;1300;3049886;-63
2023/12/09 08:31:52;;;;;;;9.00;5.50;;;;;;;2.74;78.83;99678.84;79411;1296;3011712;-64
2023/12/09 08:34:19;;;;;;;8.80;5.20;;;;;;;2.73;78.86;99678.85;79215;1300;3011548;-63
2023/12/09 08:36:47;;;;;;;7.70;5.10;;;;;;;2.61;78.97;99682.45;78234;1300;3051521;-62
2023/12/09 08:39:15;;;;;;;7.90;4.80;;;;;;;2.47;79.21;99682.07;79096;1300;3013686;-62
2023/12/09 08:41:42;;;;;;;8.70;5.80;;;;;;;2.39;79.83;99680.88;79612;1296;3011538;-62
2023/12/09 08:44:10;;;;;;;8.60;5.10;;;;;;;2.42;79.98;99675.81;80632;1297;3049930;-63
2023/12/09 08:46:37;;;;;;;7.40;4.70;;;;;;;2.38;79.63;99674.69;81897;1298;3018837;-62
2023/12/09 08:49:03;;;;;;;8.40;4.60;;;;;;;2.44;79.30;99674.22;81848;1301;3011404;-62
2023/12/09 08:51:31;;;;;;;6.20;4.40;;;;;;;2.44;79.55;99670.75;80621;1297;3025843;-61
2023/12/09 08:53:58;;;;;;;7.70;4.40;;;;;;;2.42;79.47;99669.56;81859;1297;3012495;-63
2023/12/09 08:56:25;;;;;;;9.00;5.60;;;;;;;2.41;79.72;99668.73;81847;1297;3011379;-63
2023/12/09 08:58:53;;;;;;;7.10;5.10;;;;;;;2.40;79.91;99668.08;78187;1303;3026598;-64
2023/12/09 09:01:20;;;;;;;7.90;5.10;;;;;;;2.40;80.13;99662.73;79274;1301;3013655;-64
2023/12/09 09:03:46;;;;;;;8.60;5.60;;;;;;;2.43;79.99;99659.01;79291;1303;3011574;-63
2023/12/09 09:06:14;;;;;;;8.90;5.30;;;;;;;2.42;80.13;99659.55;78023;1302;3028065;-63
2023/12/09 09:08:42;;;;;;;7.40;4.90;;;;;;;2.87;79.20;99657.90;79267;1301;3020455;-64
2023/12/09 09:11:11;;;;;;;5.90;4.20;;;;;;;3.53;77.13;99657.84;79393;1303;3011751;-63
2023/12/09 09:13:39;;;;;;;8.60;4.60;;;;;;;3.55;75.62;99661.44;78044;1303;3048025;-63
2023/12/09 09:16:07;;;;;;;5.40;4.20;;;;;;;3.46;76.06;99663.08;79189;1297;3013163;-63
2023/12/09 09:18:33;;;;;;;6.00;4.10;;;;;;;3.48;76.55;99658.00;79260;1299;3011722;-63
2023/12/09 09:21:02;;;;;;;7.90;5.00;;;;;;;3.49;76.71;99650.34;78016;1301;3051553;-64
2023/12/09 09:23:29;;;;;;;8.40;5.70;;;;;;;3.31;76.35;99652.77;79463;1301;3013063;-64
2023/12/09 09:25:56;;;;;;;8.00;5.40;;;;;;;3.15;76.82;99651.63;79285;1298;3011479;-64
2023/12/09 09:28:24;;;;;;;7.30;5.10;;;;;;;3.03;77.33;99650.06;78121;1301;3049419;-63
2023/12/09 09:30:51;;;;;;;10.50;5.60;;;;;;;2.93;77.77;99649.63;79382;1300;3013107;-63
2023/12/09 09:33:18;;;;;;;10.30;6.20;;;;;;;2.88;77.93;99650.63;79342;1300;3011577;-64
2023/12/09 09:35:48;;;;;;;9.10;5.20;;;;;;;2.92;78.25;99651.21;78069;1300;3026603;-64
2023/12/09 09:38:15;;;;;;;9.80;5.70;;;;;;;2.83;78.18;99649.72;79189;1300;3013432;-63
2023/12/09 09:40:45;;;;;;;10.40;6.00;;;;;;;2.77;78.69;99647.27;78831;1296;3013498;-63
2023/12/09 09:43:21;;;;;;;8.90;5.20;;;;;;;2.80;78.59;99635.77;79335;1297;3013488;-63
2023/12/09 09:45:49;;;;;;;11.70;5.30;;;;;;;2.72;78.60;99641.52;78086;1300;3053836;-64
2023/12/09 09:48:17;;;;;;;8.00;5.20;;;;;;;2.69;78.84;99641.60;79381;1311;3013471;-65
2023/12/09 09:50:45;;;;;;;9.80;5.30;;;;;;;2.59;78.92;99644.44;79202;1302;3011778;-63
2023/12/09 09:53:13;;;;;;;7.00;5.40;;;;;;;2.44;79.42;99639.45;78105;1297;3069481;-63
2023/12/09 09:55:41;;;;;;;9.40;5.40;;;;;;;2.48;79.68;99637.62;79079;1302;3012366;-65
2023/12/09 09:58:07;;;;;;;6.70;5.10;;;;;;;2.50;79.66;99631.85;79187;1301;3011648;-62
2023/12/09 10:00:36;;;;;;;6.30;4.20;;;;;;;2.47;79.80;99628.82;78091;1303;3053441;-65
2023/12/09 10:03:03;;;;;;;5.10;3.60;;;;;;;2.98;79.05;99627.15;79340;1302;3018460;-63
2023/12/09 10:05:30;;;;;;;7.60;4.20;;;;;;;3.60;76.82;99623.03;79162;1301;3012753;-63
2023/12/09 10:07:58;;;;;;;5.90;4.40;;;;;;;3.64;75.99;99621.86;78117;1300;3026565;-62
2023/12/09 10:10:25;;;;;;;8.20;4.60;;;;;;;3.65;76.04;99621.48;79262;1303;3012916;-63
2023/12/09 10:12:52;;;;;;;7.80;4.60;;;;;;;3.47;76.02;99619.05;79191;1302;3011459;-63
2023/12/09 10:15:21;;;;;;;7.70;4.10;;;;;;;3.37;76.53;99619.00;78245;1299;3026073;-63
2023/12/09 10:17:48;;;;;;;9.30;5.00;;;;;;;3.17;76.69;99614.02;79407;1301;3013267;-62
2023/12/09 10:20:15;;;;;;;9.20;5.10;;;;;;;3.01;77.28;99613.78;79272;1300;3011659;-60
2023/12/09 10:22:45;;;;;;;9.40;5.60;;;;;;;2.84;78.09;99619.39;77969;1298;3068643;-73
2023/12/09 10:25:20;;;;;;;8.50;5.80;;;;;;;2.80;78.55;99623.67;79460;1297;3011555;-64
2023/12/09 10:27:48;;;;;;;8.10;5.70;;;;;;;2.81;78.41;99629.36;78212;1301;3056033;-63
2023/12/09 10:30:18;;;;;;;7.10;4.90;;;;;;;2.69;78.43;99628.27;79266;1297;3013195;-64
2023/12/09 10:32:49;;;;;;;7.10;5.00;;;;;;;2.48;79.35;99626.89;78299;1302;3049521;-63
2023/12/09 10:35:17;;;;;;;8.80;5.50;;;;;;;2.38;80.26;99621.27;79386;1300;3012857;-63
2023/12/09 10:37:48;;;;;;;9.20;5.60;;;;;;;2.35;80.32;99618.05;78058;1302;3027545;-65
2023/12/09 10:40:15;;;;;;;9.20;6.10;;;;;;;2.27;80.40;99614.11;79296;1297;3011705;-65
2023/12/09 10:42:43;;;;;;;7.60;5.00;;;;;;;2.18;81.11;99610.50;78275;1297;3026072;-65
2023/12/09 10:45:11;;;;;;;8.10;4.80;;;;;;;2.27;81.16;99609.95;79163;1296;3018811;-63
2023/12/09 10:47:38;;;;;;;8.30;5.50;;;;;;;2.28;80.95;99607.52;79368;1300;3011894;-64
2023/12/09 10:50:07;;;;;;;6.50;4.40;;;;;;;2.19;81.28;99607.89;78333;1300;3049323;-65
2023/12/09 10:52:34;;;;;;;6.10;3.50;;;;;;;2.81;80.60;99604.41;79547;1301;3013647;-65
2023/12/09 10:55:01;;;;;;;6.80;3.90;;;;;;;3.59;78.42;99605.38;79328;1300;3013066;-65
2023/12/09 10:57:30;;;;;;;6.80;4.40;;;;;;;3.72;76.77;99601.51;78432;1302;3052325;-65
2023/12/09 10:59:56;;;;;;;6.60;4.40;;;;;;;3.69;76.70;99606.81;79497;1296;3012217;-65
2023/12/09 11:02:24;;;;;;;7.80;4.50;;;;;;;3.53;76.54;99606.92;79221;1301;3013484;-65
2023/12/09 11:04:52;;;;;;;7.60;5.10;;;;;;;3.45;77.11;99609.25;78120;1299;3025716;-65
2023/12/09 11:07:19;;;;;;;7.10;4.40;;;;;;;3.36;77.14;99607.25;79764;1300;3012453;-66
2023/12/09 11:09:46;;;;;;;11.00;5.60;;;;;;;3.24;77.41;99604.98;79570;1305;3011833;-65
2023/12/09 11:12:26;;;;;;;7.90;5.20;;;;;;;2.98;77.56;99609.16;78273;1300;3053039;-63
2023/12/09 11:14:54;;;;;;;9.20;5.90;;;;;;;2.86;78.45;99607.42;78078;1300;3055898;-62
2023/12/09 11:17:34;;;;;;;8.60;5.40;;;;;;;2.87;78.79;99616.73;79526;1297;3019017;-67
2023/12/09 11:20:06;;;;;;;8.40;5.50;;;;;;;2.77;78.80;99617.50;78168;1299;3049339;-67
2023/12/09 11:22:36;;;;;;;8.00;5.30;;;;;;;2.70;79.22;99616.83;79566;1296;3011913;-64
2023/12/09 11:25:05;;;;;;;10.70;6.00;;;;;;;2.70;79.15;99613.02;78167;1310;3052187;-65
2023/12/09 11:27:39;;;;;;;8.20;5.30;;;;;;;2.45;80.02;99618.48;79686;1301;3013120;-63